Strona główna
METAR-TAF:

METAR-TAF

Lotnisko :

Port lotniczy Phnom Penh

Phnom Penh, Kambodża

Szerokość geograficzna: 11-33N, Długość geograficzna: 104-51E, wysokość: 10 m

Aktualna obserwacja pogody

Raport powstał 15 minut temu, godzina 07:30 UTC
Wiatr 11 kt od wschodnio-północny wschód, zmienny między północno-północny wschód i wschód
Temperatura 35°C
Wilgotność 28%
Ciśnienie 1012 hPa
Widzialność 10 km lub więcej
Mało chmury na wysokości 1700 ft

METAR: VDPP 220730Z 06011KT 020V100 9999 FEW017 35/14 Q1012

czas: 14:45 (07:45 UTC)

Prognoza

Raport powstał 2 godziny i 45 minut temu, godzina 05:00 UTC
Prognoza ważna od 22 godzina 06 UTC do 22 godzina 24 UTC
Wiatr 10 kt od północny wschód
Widzialność 10 km lub więcej
Rozproszone chmury na wysokości 1700 ft

TAF: VDPP 220500Z 2206/2224 05010KT 9999 SCT017

Obserwacja i prognoza pogody dla ponad 4000 lotnisk (raport METAR i TAF).

Dostępne stacje oznaczono żółtymi i czerwonymi punktami na mapie.

Najedź kursorem aby zobaczyć nazwę stacji.

Kliknij aby zobaczyć obserwacje i prognozy pogody.

Aby zmienić mapę: kliknij na zielony przycisk z czarnym krzyżykiem, aby powiększyć; na zielony przycisk z myślnikiem, aby pomniejszyć; na zielone strzałki, aby przejść do map sąsiednich.


METAR-TAF: